createdAt,value
2023-03-16T00:01:36.736Z,18.87
2023-03-16T00:04:05.045Z,18.43
2023-03-16T00:06:34.433Z,18.60
2023-03-16T00:09:02.571Z,18.60
2023-03-16T00:11:30.745Z,18.30
2023-03-16T00:13:59.720Z,18.80
2023-03-16T00:16:27.893Z,18.63
2023-03-16T00:18:56.023Z,18.83
2023-03-16T00:21:24.061Z,20.10
2023-03-16T00:23:53.525Z,18.50
2023-03-16T00:26:22.533Z,18.50
2023-03-16T00:28:54.295Z,19.00
2023-03-16T00:31:25.034Z,18.50
2023-03-16T00:33:53.169Z,20.03
2023-03-16T00:36:22.786Z,18.40
2023-03-16T00:38:51.313Z,18.40
2023-03-16T00:41:20.812Z,18.47
2023-03-16T00:43:49.033Z,18.70
2023-03-16T00:46:18.480Z,20.00
2023-03-16T00:48:48.517Z,18.90
2023-03-16T00:51:18.729Z,19.10
2023-03-16T00:53:47.768Z,19.37
2023-03-16T00:56:16.420Z,19.27
2023-03-16T00:58:45.911Z,19.17
2023-03-16T01:01:16.383Z,19.03
2023-03-16T01:03:44.788Z,19.57
2023-03-16T01:06:15.194Z,18.87
2023-03-16T01:08:44.189Z,19.00
2023-03-16T01:11:16.486Z,18.57
2023-03-16T01:13:47.990Z,19.70
2023-03-16T01:16:16.858Z,20.77
2023-03-16T01:18:44.963Z,18.90
2023-03-16T01:21:13.978Z,19.20
2023-03-16T01:23:44.113Z,19.40
2023-03-16T01:26:12.864Z,19.17
2023-03-16T01:28:40.909Z,19.43
2023-03-16T01:31:12.536Z,19.33
2023-03-16T01:33:41.145Z,19.20
2023-03-16T01:36:11.716Z,18.97
2023-03-16T01:38:40.103Z,19.40
2023-03-16T01:41:08.781Z,19.43
2023-03-16T01:43:40.290Z,19.30
2023-03-16T01:46:21.903Z,19.70
2023-03-16T01:49:08.215Z,19.60
2023-03-16T01:51:44.097Z,19.90
2023-03-16T01:54:18.970Z,20.03
2023-03-16T01:56:55.566Z,20.53
2023-03-16T01:59:28.492Z,20.00
2023-03-16T02:01:59.530Z,20.03
2023-03-16T02:04:38.389Z,20.33
2023-03-16T02:07:08.946Z,19.87
2023-03-16T02:09:42.645Z,19.87
2023-03-16T02:12:17.942Z,19.70
2023-03-16T02:14:46.681Z,20.93
2023-03-16T02:17:18.274Z,19.77
2023-03-16T02:19:58.084Z,20.40
2023-03-16T02:22:26.657Z,19.90
2023-03-16T02:24:55.443Z,19.83
2023-03-16T02:27:32.351Z,19.97
2023-03-16T02:30:11.665Z,20.47
2023-03-16T02:32:42.436Z,20.60
2023-03-16T02:35:12.952Z,19.80
2023-03-16T02:37:41.841Z,20.10
2023-03-16T02:40:22.455Z,20.80
2023-03-16T02:42:56.728Z,20.43
2023-03-16T02:45:29.324Z,20.37
2023-03-16T02:47:59.510Z,20.20
2023-03-16T02:50:27.856Z,20.40
2023-03-16T02:52:56.265Z,20.43
2023-03-16T02:55:24.426Z,20.37
2023-03-16T02:57:53.311Z,20.43
2023-03-16T03:00:22.249Z,20.17
2023-03-16T03:02:52.616Z,20.37
2023-03-16T03:05:21.284Z,20.63
2023-03-16T03:07:49.399Z,20.53
2023-03-16T03:10:17.765Z,20.90
2023-03-16T03:12:49.286Z,21.20
2023-03-16T03:15:18.945Z,21.40
2023-03-16T03:17:47.290Z,21.30
2023-03-16T03:20:18.340Z,21.53
2023-03-16T03:22:48.940Z,21.53
2023-03-16T03:25:18.880Z,22.33
2023-03-16T03:27:48.820Z,21.97
2023-03-16T03:30:19.405Z,22.20
2023-03-16T03:32:47.540Z,23.00
2023-03-16T03:35:17.502Z,22.83
2023-03-16T03:37:45.762Z,23.43
2023-03-16T03:40:16.604Z,24.20
2023-03-16T03:42:44.762Z,23.97
2023-03-16T03:45:14.215Z,24.53
2023-03-16T03:47:43.181Z,24.13
2023-03-16T03:50:13.766Z,25.00
2023-03-16T03:52:43.346Z,25.27
2023-03-16T03:55:11.773Z,25.93
2023-03-16T03:57:40.231Z,26.10
2023-03-16T04:00:11.438Z,26.47
2023-03-16T04:02:39.728Z,26.13
2023-03-16T04:05:09.005Z,26.47
2023-03-16T04:07:37.107Z,26.77
2023-03-16T04:10:07.995Z,28.37
2023-03-16T04:12:36.223Z,28.60
2023-03-16T04:15:04.809Z,28.10
2023-03-16T04:17:34.340Z,28.40
2023-03-16T04:20:05.402Z,28.97
2023-03-16T04:22:33.986Z,28.87
2023-03-16T04:25:03.984Z,29.43
2023-03-16T04:27:36.443Z,29.90
2023-03-16T04:30:06.514Z,30.00
2023-03-16T04:32:35.280Z,30.37
2023-03-16T04:35:03.313Z,30.40
2023-03-16T04:37:31.458Z,30.87
2023-03-16T04:39:59.602Z,30.10
2023-03-16T04:42:27.660Z,31.50
2023-03-16T04:44:57.194Z,30.97
2023-03-16T04:47:25.919Z,29.90
2023-03-16T04:49:54.259Z,29.77
2023-03-16T04:52:22.326Z,28.40
2023-03-16T04:54:50.242Z,29.70
2023-03-16T04:57:19.362Z,29.23
2023-03-16T04:59:47.495Z,30.27
2023-03-16T05:02:17.686Z,28.53
2023-03-16T05:04:45.728Z,28.40
2023-03-16T05:07:13.845Z,27.70
2023-03-16T05:09:42.026Z,28.77
2023-03-16T05:12:10.656Z,28.13
2023-03-16T05:14:38.844Z,28.60
2023-03-16T05:17:07.034Z,28.07
2023-03-16T05:19:36.563Z,28.27
2023-03-16T05:22:04.605Z,27.60
2023-03-16T05:24:32.652Z,28.43
2023-03-16T05:27:03.428Z,29.97
2023-03-16T05:29:32.118Z,28.00
2023-03-16T05:32:00.497Z,28.07
2023-03-16T05:34:28.770Z,26.23
2023-03-16T05:36:58.226Z,26.97
2023-03-16T05:39:26.405Z,27.80
2023-03-16T05:41:55.113Z,26.97
2023-03-16T05:44:23.609Z,28.53
2023-03-16T05:46:51.762Z,27.77
2023-03-16T05:49:19.920Z,28.13
2023-03-16T05:51:48.529Z,25.90
2023-03-16T05:54:17.950Z,26.97
2023-03-16T05:56:46.218Z,26.73
2023-03-16T05:59:14.298Z,26.30
2023-03-16T06:01:43.189Z,26.90
2023-03-16T06:04:11.525Z,24.50
2023-03-16T06:06:39.612Z,25.37
2023-03-16T06:09:07.929Z,24.57
2023-03-16T06:11:37.372Z,24.10
2023-03-16T06:14:05.694Z,24.00
2023-03-16T06:16:33.823Z,24.33
2023-03-16T06:19:02.051Z,24.73
2023-03-16T06:21:30.085Z,24.70
2023-03-16T06:23:58.195Z,26.80
2023-03-16T06:26:26.342Z,26.33
2023-03-16T06:28:55.776Z,26.07
2023-03-16T06:31:23.815Z,25.10
2023-03-16T06:33:51.981Z,25.17
2023-03-16T06:36:20.421Z,23.63
2023-03-16T06:38:48.675Z,24.03
2023-03-16T06:41:16.736Z,23.90
2023-03-16T06:43:44.956Z,23.50
2023-03-16T06:46:14.547Z,23.43
2023-03-16T06:48:42.847Z,22.60
2023-03-16T06:51:11.124Z,23.13
2023-03-16T06:53:39.215Z,22.90
2023-03-16T06:56:07.813Z,22.63
2023-03-16T06:58:36.049Z,22.80
2023-03-16T07:01:04.688Z,22.23
2023-03-16T07:03:34.325Z,23.07
2023-03-16T07:06:03.246Z,23.50
2023-03-16T07:08:31.508Z,23.60
2023-03-16T07:10:59.704Z,23.20
2023-03-16T07:13:27.803Z,22.70
2023-03-16T07:15:56.016Z,21.97
2023-03-16T07:18:25.889Z,21.80
2023-03-16T07:20:55.695Z,22.20
2023-03-16T07:23:24.381Z,22.53
2023-03-16T07:25:52.751Z,22.47
2023-03-16T07:28:21.296Z,23.23
2023-03-16T07:31:02.950Z,22.40
2023-03-16T07:33:33.494Z,22.00
2023-03-16T07:36:05.686Z,21.60
2023-03-16T07:38:34.504Z,20.33
2023-03-16T07:41:02.623Z,21.03
2023-03-16T07:43:30.730Z,22.30
2023-03-16T07:45:59.108Z,21.33
2023-03-16T07:48:27.289Z,21.17
2023-03-16T07:50:55.388Z,20.30
2023-03-16T07:53:25.090Z,21.20
2023-03-16T07:55:53.675Z,20.53
2023-03-16T07:58:22.164Z,19.97
2023-03-16T08:00:50.384Z,21.20
2023-03-16T08:03:18.631Z,21.70
2023-03-16T08:05:46.719Z,21.00
2023-03-16T08:08:16.052Z,20.83
2023-03-16T08:10:48.466Z,21.70
2023-03-16T08:13:17.033Z,21.40
2023-03-16T08:15:48.410Z,20.30
2023-03-16T08:18:17.085Z,19.97
2023-03-16T08:20:45.686Z,20.57
2023-03-16T08:23:15.720Z,20.10
2023-03-16T08:25:46.137Z,20.03
2023-03-16T08:28:15.898Z,20.10
2023-03-16T08:30:48.557Z,20.17
2023-03-16T08:33:17.958Z,19.20
2023-03-16T08:35:46.436Z,19.20
2023-03-16T08:38:15.926Z,19.77
2023-03-16T08:40:48.517Z,19.83
2023-03-16T08:43:17.070Z,19.03
2023-03-16T08:45:46.117Z,19.17
2023-03-16T08:48:14.802Z,18.80
2023-03-16T08:50:44.256Z,18.60
2023-03-16T08:53:13.856Z,18.13
2023-03-16T08:55:42.537Z,18.20
2023-03-16T08:58:14.050Z,18.47
2023-03-16T09:00:43.881Z,19.00
2023-03-16T09:03:13.626Z,17.87
2023-03-16T09:05:42.439Z,18.27
2023-03-16T09:08:10.508Z,18.17
2023-03-16T09:10:38.564Z,18.20
2023-03-16T09:13:06.745Z,18.30
2023-03-16T09:15:36.796Z,18.60
2023-03-16T09:18:05.687Z,18.50
2023-03-16T09:20:34.248Z,20.60
2023-03-16T09:23:03.728Z,18.60
2023-03-16T09:25:32.482Z,18.20
2023-03-16T09:28:01.119Z,17.80
2023-03-16T09:30:29.730Z,17.60
2023-03-16T09:32:59.562Z,17.37
2023-03-16T09:35:28.068Z,17.40
2023-03-16T09:38:06.174Z,17.83
2023-03-16T09:40:36.259Z,17.70
2023-03-16T09:43:25.803Z,17.60
2023-03-16T09:46:01.755Z,17.97
2023-03-16T09:48:33.846Z,17.07
2023-03-16T09:51:06.007Z,17.40
2023-03-16T09:53:37.985Z,18.33
2023-03-16T09:56:09.412Z,18.33
2023-03-16T09:58:37.903Z,17.67
2023-03-16T10:01:15.043Z,17.67
2023-03-16T10:04:06.510Z,18.60
2023-03-16T10:06:41.447Z,17.97
2023-03-16T10:09:22.747Z,17.90
2023-03-16T10:11:54.324Z,17.93
2023-03-16T10:14:26.672Z,17.50
2023-03-16T10:17:01.302Z,17.50
2023-03-16T10:19:37.515Z,17.37
2023-03-16T10:22:17.551Z,17.43
2023-03-16T10:24:55.448Z,17.50
2023-03-16T10:27:29.555Z,17.60
2023-03-16T10:29:57.953Z,17.63
2023-03-16T10:32:29.515Z,17.40
2023-03-16T10:35:05.964Z,17.57
2023-03-16T10:37:34.346Z,17.53
2023-03-16T10:40:05.088Z,17.60
2023-03-16T10:42:37.110Z,17.50
2023-03-16T10:45:05.934Z,17.37
2023-03-16T10:47:35.166Z,16.80
2023-03-16T10:50:16.758Z,16.70
2023-03-16T10:52:48.136Z,16.70
2023-03-16T10:55:20.514Z,16.53
2023-03-16T10:57:53.592Z,16.60
2023-03-16T11:00:26.298Z,16.90
2023-03-16T11:02:56.787Z,16.50
2023-03-16T11:05:32.396Z,16.77
2023-03-16T11:08:03.233Z,16.57
2023-03-16T11:10:40.441Z,16.77
2023-03-16T11:13:17.634Z,17.67
2023-03-16T11:15:49.830Z,16.63
2023-03-16T11:18:29.532Z,16.63
2023-03-16T11:21:01.809Z,16.60
2023-03-16T11:23:33.304Z,17.30
2023-03-16T11:26:05.755Z,16.60
2023-03-16T11:28:39.530Z,16.97
2023-03-16T11:31:24.440Z,17.00
2023-03-16T11:33:55.411Z,16.40
2023-03-16T11:36:39.809Z,16.67
2023-03-16T11:39:14.116Z,16.70
2023-03-16T11:41:53.466Z,16.83
2023-03-16T11:44:29.656Z,16.90
2023-03-16T11:47:06.650Z,17.00
2023-03-16T11:49:54.524Z,16.70
2023-03-16T11:52:39.270Z,16.97
2023-03-16T11:55:24.601Z,17.00
2023-03-16T11:58:03.893Z,16.90
2023-03-16T12:00:41.575Z,16.93
2023-03-16T12:03:30.993Z,17.50
2023-03-16T12:06:13.502Z,17.07
2023-03-16T12:09:10.589Z,16.80
2023-03-16T12:11:42.723Z,16.77
2023-03-16T12:14:19.870Z,17.20
2023-03-16T12:16:54.743Z,17.43
2023-03-16T12:19:29.004Z,17.80
2023-03-16T12:22:04.772Z,17.43
2023-03-16T12:24:40.840Z,16.90
2023-03-16T12:27:15.891Z,17.17
2023-03-16T12:30:01.786Z,17.20
2023-03-16T12:32:41.056Z,16.80
2023-03-16T12:35:22.682Z,16.60
2023-03-16T12:37:58.329Z,16.97
2023-03-16T12:40:36.185Z,16.97
2023-03-16T12:43:26.152Z,17.10
2023-03-16T12:46:00.713Z,17.30
2023-03-16T12:48:33.248Z,17.23
2023-03-16T12:51:03.625Z,16.80
2023-03-16T12:53:44.547Z,17.27
2023-03-16T12:56:16.451Z,17.50
2023-03-16T12:58:48.649Z,17.10
2023-03-16T13:01:19.942Z,17.40
2023-03-16T13:03:50.487Z,17.30
2023-03-16T13:06:22.782Z,17.30
2023-03-16T13:08:57.889Z,17.80
2023-03-16T13:11:28.075Z,17.53
2023-03-16T13:14:10.964Z,17.20
2023-03-16T13:16:40.041Z,17.20
2023-03-16T13:19:27.381Z,17.37
2023-03-16T13:22:04.779Z,16.77
2023-03-16T13:24:41.136Z,16.97
2023-03-16T13:27:23.260Z,16.90
2023-03-16T13:30:02.018Z,16.73
2023-03-16T13:32:34.171Z,17.13
2023-03-16T13:35:06.056Z,17.20
2023-03-16T13:37:34.204Z,17.00
2023-03-16T13:40:04.741Z,16.87
2023-03-16T13:42:35.229Z,17.87
2023-03-16T13:45:14.412Z,16.77
2023-03-16T13:47:44.352Z,16.87
2023-03-16T13:50:14.366Z,16.73
2023-03-16T13:52:44.607Z,17.20
2023-03-16T13:55:18.037Z,17.30
2023-03-16T13:57:49.283Z,16.83
2023-03-16T14:00:20.890Z,17.23
2023-03-16T14:02:52.621Z,17.27
2023-03-16T14:05:24.529Z,17.00
2023-03-16T14:07:54.250Z,16.97
2023-03-16T14:10:23.997Z,17.03
2023-03-16T14:12:54.947Z,17.30
2023-03-16T14:15:26.591Z,17.20
2023-03-16T14:17:54.898Z,17.17
2023-03-16T14:20:26.010Z,16.90
2023-03-16T14:22:54.994Z,16.77
2023-03-16T14:25:27.654Z,16.90
2023-03-16T14:28:02.247Z,17.03
2023-03-16T14:30:31.588Z,17.20
2023-03-16T14:33:02.066Z,16.67
2023-03-16T14:35:32.286Z,17.30
2023-03-16T14:38:21.765Z,16.93
2023-03-16T14:40:55.165Z,16.77
2023-03-16T14:43:30.639Z,16.83
2023-03-16T14:45:59.108Z,17.03
2023-03-16T14:48:28.353Z,17.20
2023-03-16T14:50:59.345Z,17.20
2023-03-16T14:53:28.616Z,57.20
2023-03-16T14:55:56.934Z,16.90
2023-03-16T14:58:26.762Z,16.77
2023-03-16T15:00:55.406Z,16.83
2023-03-16T15:03:32.814Z,16.90
2023-03-16T15:06:01.378Z,16.67
2023-03-16T15:08:32.869Z,16.30
2023-03-16T15:11:05.754Z,16.60
2023-03-16T15:14:03.810Z,16.80
2023-03-16T15:16:32.913Z,16.93
2023-03-16T15:19:01.050Z,16.87
2023-03-16T15:21:32.471Z,17.20
2023-03-16T15:24:01.004Z,16.70
2023-03-16T15:26:30.654Z,16.90
2023-03-16T15:29:00.114Z,16.63
2023-03-16T15:31:28.289Z,16.83
2023-03-16T15:33:56.432Z,16.67
2023-03-16T15:36:24.946Z,16.83
2023-03-16T15:38:55.221Z,16.73
2023-03-16T15:41:24.970Z,17.10
2023-03-16T15:44:00.586Z,16.60
2023-03-16T15:46:30.121Z,17.00
2023-03-16T15:48:58.265Z,16.90
2023-03-16T15:51:28.925Z,16.90
2023-03-16T15:53:59.911Z,16.93
2023-03-16T15:56:30.255Z,17.17
2023-03-16T15:59:01.033Z,17.13
2023-03-16T16:01:34.931Z,17.13
2023-03-16T16:04:03.467Z,18.10
2023-03-16T16:06:31.924Z,17.23
2023-03-16T16:08:59.999Z,17.27
2023-03-16T16:11:29.727Z,17.40
2023-03-16T16:13:59.358Z,17.10
2023-03-16T16:16:29.312Z,16.70
2023-03-16T16:18:59.130Z,16.63
2023-03-16T16:21:31.461Z,16.63
2023-03-16T16:24:01.276Z,16.90
2023-03-16T16:26:54.413Z,16.83
2023-03-16T16:29:24.013Z,16.80
2023-03-16T16:31:52.560Z,17.50
2023-03-16T16:34:25.197Z,17.30
2023-03-16T16:36:53.806Z,17.10
2023-03-16T16:39:21.938Z,16.97
2023-03-16T16:41:54.427Z,17.07
2023-03-16T16:44:25.264Z,16.67
2023-03-16T16:46:54.289Z,16.73
2023-03-16T16:49:25.931Z,16.73
2023-03-16T16:51:54.537Z,17.03
2023-03-16T16:54:24.719Z,17.20
2023-03-16T16:56:55.262Z,16.60
2023-03-16T16:59:26.119Z,16.53
2023-03-16T17:01:54.944Z,17.20
2023-03-16T17:04:27.092Z,16.77
2023-03-16T17:06:58.319Z,17.13
2023-03-16T17:09:27.770Z,16.80
2023-03-16T17:11:58.797Z,17.37
2023-03-16T17:14:28.685Z,16.93
2023-03-16T17:16:57.309Z,16.57
2023-03-16T17:19:28.814Z,16.50
2023-03-16T17:21:58.875Z,16.30
2023-03-16T17:24:28.747Z,16.70
2023-03-16T17:26:59.839Z,16.13
2023-03-16T17:29:31.412Z,15.80
2023-03-16T17:32:00.774Z,15.17
2023-03-16T17:34:33.531Z,15.10
2023-03-16T17:37:02.731Z,15.53
2023-03-16T17:39:32.191Z,15.50
2023-03-16T17:42:02.529Z,15.87
2023-03-16T17:44:33.650Z,15.70
2023-03-16T17:47:01.986Z,16.30
2023-03-16T17:49:32.719Z,15.67
2023-03-16T17:52:01.078Z,15.80
2023-03-16T17:54:29.041Z,16.00
2023-03-16T17:56:57.211Z,16.20
2023-03-16T17:59:25.861Z,15.63
2023-03-16T18:01:54.016Z,15.63
2023-03-16T18:04:25.029Z,16.20
2023-03-16T18:06:55.429Z,15.93
2023-03-16T18:09:23.554Z,16.40
2023-03-16T18:11:52.901Z,17.20
2023-03-16T18:14:34.913Z,16.10
2023-03-16T18:17:05.326Z,16.40
2023-03-16T18:19:34.399Z,17.30
2023-03-16T18:22:03.825Z,17.10
2023-03-16T18:24:31.928Z,16.70
2023-03-16T18:27:00.192Z,16.27
2023-03-16T18:29:28.663Z,17.57
2023-03-16T18:31:59.267Z,16.50
2023-03-16T18:34:31.490Z,17.10
2023-03-16T18:37:06.064Z,16.57
2023-03-16T18:39:35.546Z,16.60
2023-03-16T18:42:03.624Z,17.40
2023-03-16T18:44:32.552Z,16.70
2023-03-16T18:47:03.764Z,16.43
2023-03-16T18:49:34.999Z,17.20
2023-03-16T18:52:03.668Z,16.47
2023-03-16T18:54:35.352Z,16.30
2023-03-16T18:57:06.777Z,16.20
2023-03-16T18:59:34.871Z,16.23
2023-03-16T19:02:03.089Z,16.20
2023-03-16T19:04:32.862Z,16.87
2023-03-16T19:07:01.156Z,16.57
2023-03-16T19:09:31.092Z,16.23
2023-03-16T19:12:00.261Z,16.10
2023-03-16T19:14:33.189Z,16.10
2023-03-16T19:17:01.674Z,16.03
2023-03-16T19:19:30.058Z,16.60
2023-03-16T19:22:03.440Z,16.90
2023-03-16T19:24:35.734Z,16.70
2023-03-16T19:27:03.986Z,16.50
2023-03-16T19:29:36.488Z,16.50
2023-03-16T19:32:04.671Z,16.73
2023-03-16T19:34:32.787Z,16.30
2023-03-16T19:37:01.007Z,16.40
2023-03-16T19:39:29.331Z,15.90
2023-03-16T19:41:59.162Z,15.97
2023-03-16T19:44:29.468Z,15.70
2023-03-16T19:47:00.904Z,16.20
2023-03-16T19:49:29.412Z,15.90
2023-03-16T19:51:58.081Z,16.70
2023-03-16T19:54:28.499Z,16.90
2023-03-16T19:56:59.000Z,15.80
2023-03-16T19:59:31.983Z,17.50
2023-03-16T20:02:01.587Z,15.97
2023-03-16T20:04:30.321Z,16.50
2023-03-16T20:06:58.450Z,16.30
2023-03-16T20:09:27.397Z,16.03
2023-03-16T20:11:55.837Z,16.30
2023-03-16T20:14:30.142Z,16.53
2023-03-16T20:17:01.156Z,16.50
2023-03-16T20:19:29.641Z,16.43
2023-03-16T20:21:57.735Z,16.40
2023-03-16T20:24:26.408Z,16.03
2023-03-16T20:26:55.444Z,16.40
2023-03-16T20:29:28.507Z,17.50
2023-03-16T20:31:57.082Z,16.40
2023-03-16T20:34:29.072Z,17.37
2023-03-16T20:36:57.791Z,16.20
2023-03-16T20:39:25.968Z,15.97
2023-03-16T20:41:54.339Z,15.73
2023-03-16T20:44:23.620Z,15.80
2023-03-16T20:46:51.992Z,16.20
2023-03-16T20:52:21.744Z,16.60
2023-03-16T20:54:50.211Z,15.97
2023-03-16T20:57:21.577Z,16.00
2023-03-16T20:59:51.473Z,16.30
2023-03-16T21:02:28.235Z,16.27
2023-03-16T21:04:57.043Z,16.40
2023-03-16T21:07:27.162Z,16.30
2023-03-16T21:09:55.255Z,16.27
2023-03-16T21:12:26.768Z,16.10
2023-03-16T21:14:55.256Z,16.30
2023-03-16T21:17:26.607Z,16.47
2023-03-16T21:19:55.196Z,16.77
2023-03-16T21:22:27.223Z,16.40
2023-03-16T21:24:55.717Z,17.20
2023-03-16T21:27:26.668Z,16.57
2023-03-16T21:29:55.575Z,18.07
2023-03-16T21:32:25.969Z,17.13
2023-03-16T21:34:55.280Z,17.10
2023-03-16T21:37:24.379Z,17.20
2023-03-16T21:39:53.834Z,16.80
2023-03-16T21:42:22.191Z,16.93
2023-03-16T21:44:50.241Z,17.07
2023-03-16T21:47:26.087Z,16.90
2023-03-16T21:49:54.812Z,17.07
2023-03-16T21:52:24.606Z,16.70
2023-03-16T21:54:55.032Z,16.93
2023-03-16T21:57:23.422Z,17.40
2023-03-16T21:59:51.861Z,17.00
2023-03-16T22:02:23.010Z,16.90
2023-03-16T22:04:52.294Z,17.30
2023-03-16T22:07:23.070Z,17.33
2023-03-16T22:09:51.332Z,17.20
2023-03-16T22:12:20.765Z,16.80
2023-03-16T22:14:48.832Z,17.20
2023-03-16T22:17:22.107Z,16.67
2023-03-16T22:19:50.298Z,17.80
2023-03-16T22:22:18.978Z,17.00
2023-03-16T22:24:47.463Z,17.70
2023-03-16T22:27:26.031Z,17.33
2023-03-16T22:29:55.520Z,17.50
2023-03-16T22:32:23.851Z,17.37
2023-03-16T22:34:55.921Z,17.43
2023-03-16T22:37:28.110Z,16.87
2023-03-16T22:39:58.457Z,17.40
2023-03-16T22:42:30.393Z,17.50
2023-03-16T22:45:00.762Z,17.57
2023-03-16T22:47:32.280Z,17.73
2023-03-16T22:50:00.667Z,17.87
2023-03-16T22:52:31.917Z,17.50
2023-03-16T22:55:01.757Z,17.53
2023-03-16T22:57:30.659Z,17.70
2023-03-16T23:00:01.274Z,17.40
2023-03-16T23:02:30.556Z,17.67
2023-03-16T23:04:58.670Z,19.10
2023-03-16T23:07:27.140Z,17.33
2023-03-16T23:09:55.649Z,17.20
2023-03-16T23:12:23.729Z,17.10
2023-03-16T23:14:51.908Z,17.10
2023-03-16T23:17:23.177Z,17.30
2023-03-16T23:19:51.942Z,17.40
2023-03-16T23:22:20.047Z,17.60
2023-03-16T23:24:48.080Z,18.23
2023-03-16T23:27:18.800Z,18.17
2023-03-16T23:29:47.481Z,18.00
2023-03-16T23:32:16.862Z,18.10
2023-03-16T23:34:46.432Z,18.10
2023-03-16T23:37:14.482Z,18.03
2023-03-16T23:39:42.605Z,18.13
2023-03-16T23:42:11.022Z,17.73
2023-03-16T23:44:39.201Z,17.80
2023-03-16T23:47:07.478Z,18.00
2023-03-16T23:49:39.315Z,18.10
2023-03-16T23:52:12.220Z,18.00
2023-03-16T23:54:40.499Z,17.60
2023-03-16T23:57:10.151Z,17.90
2023-03-16T23:59:38.234Z,17.50
